createdAt,value
2023-04-13T00:02:06.289Z,97719.13
2023-04-13T00:04:33.995Z,97706.09
2023-04-13T00:07:03.443Z,97710.22
2023-04-13T00:09:33.144Z,97692.13
2023-04-13T00:11:59.795Z,97692.13
2023-04-13T00:14:35.322Z,97700.31
2023-04-13T00:17:03.260Z,97699.78
2023-04-13T00:19:30.055Z,97674.13
2023-04-13T00:21:56.938Z,97702.38
2023-04-13T00:24:23.489Z,97693.72
2023-04-13T00:26:49.996Z,97681.38
2023-04-13T00:29:16.498Z,97709.00
2023-04-13T00:31:42.943Z,97711.78
2023-04-13T00:34:09.372Z,97715.78
2023-04-13T00:36:36.097Z,97718.25
2023-04-13T00:39:02.508Z,97725.41
2023-04-13T00:41:29.186Z,97723.13
2023-04-13T00:43:55.663Z,97724.56
2023-04-13T00:46:24.728Z,97735.97
2023-04-13T00:48:51.264Z,97726.84
2023-04-13T00:51:18.243Z,97664.84
2023-04-13T00:53:44.767Z,97726.63
2023-04-13T00:56:12.095Z,97722.25
2023-04-13T00:58:38.606Z,97724.16
2023-04-13T01:01:05.248Z,97717.09
2023-04-13T01:03:31.847Z,97711.75
2023-04-13T01:06:17.863Z,97718.69
2023-04-13T01:08:58.079Z,97722.03
2023-04-13T01:11:48.419Z,97721.16
2023-04-13T01:14:23.316Z,97729.91
2023-04-13T01:16:59.146Z,97729.59
2023-04-13T01:19:53.829Z,97724.28
2023-04-13T01:22:22.482Z,97721.91
2023-04-13T01:25:07.576Z,97727.09
2023-04-13T01:27:42.296Z,97727.28
2023-04-13T01:30:11.037Z,97732.97
2023-04-13T01:32:38.916Z,97729.63
2023-04-13T01:35:06.857Z,97704.72
2023-04-13T01:37:33.828Z,97727.72
2023-04-13T01:40:00.263Z,97693.16
2023-04-13T01:42:26.710Z,97726.81
2023-04-13T01:44:53.185Z,97720.56
2023-04-13T01:47:23.364Z,97715.03
2023-04-13T01:50:00.528Z,97720.38
2023-04-13T01:52:27.981Z,97717.78
2023-04-13T01:54:56.346Z,97719.34
2023-04-13T01:57:23.341Z,97728.81
2023-04-13T01:59:49.820Z,97726.06
2023-04-13T02:02:17.557Z,97733.41
2023-04-13T02:04:44.152Z,97731.97
2023-04-13T02:07:12.357Z,97741.28
2023-04-13T02:09:38.887Z,97752.31
2023-04-13T02:12:05.738Z,97756.28
2023-04-13T02:14:32.281Z,97734.09
2023-04-13T02:16:58.998Z,97735.81
2023-04-13T02:19:25.680Z,97741.69
2023-04-13T02:21:53.244Z,97736.38
2023-04-13T02:24:19.687Z,97710.94
2023-04-13T02:26:46.376Z,97738.38
2023-04-13T02:29:12.794Z,97745.69
2023-04-13T02:31:44.169Z,97748.63
2023-04-13T02:34:11.417Z,97725.91
2023-04-13T02:36:39.236Z,97740.09
2023-04-13T02:39:05.800Z,97747.16
2023-04-13T02:41:32.368Z,97742.13
2023-04-13T02:43:59.848Z,97749.00
2023-04-13T02:46:26.443Z,97742.03
2023-04-13T02:48:52.958Z,97755.03
2023-04-13T02:51:20.542Z,97761.59
2023-04-13T02:53:47.101Z,97769.84
2023-04-13T02:56:14.282Z,97761.13
2023-04-13T02:58:41.856Z,97741.75
2023-04-13T03:01:08.396Z,97761.41
2023-04-13T03:03:34.946Z,97760.66
2023-04-13T03:06:01.677Z,97762.66
2023-04-13T03:08:28.428Z,97749.66
2023-04-13T03:10:55.062Z,97767.53
2023-04-13T03:13:21.534Z,97752.81
2023-04-13T03:15:48.225Z,97752.97
2023-04-13T03:18:16.141Z,97744.06
2023-04-13T03:20:43.708Z,97740.66
2023-04-13T03:23:10.728Z,97738.94
2023-04-13T03:25:37.390Z,97738.94
2023-04-13T03:28:03.949Z,97735.16
2023-04-13T03:30:30.487Z,97738.38
2023-04-13T03:32:57.025Z,97739.28
2023-04-13T03:35:23.560Z,97740.06
2023-04-13T03:37:50.454Z,97722.56
2023-04-13T03:40:17.056Z,97735.50
2023-04-13T03:42:43.466Z,97723.91
2023-04-13T03:45:10.648Z,97710.59
2023-04-13T03:47:38.829Z,97710.25
2023-04-13T03:50:06.097Z,97717.09
2023-04-13T03:52:32.628Z,97725.13
2023-04-13T03:54:59.104Z,97722.66
2023-04-13T03:57:26.697Z,97729.09
2023-04-13T03:59:53.186Z,97722.25
2023-04-13T04:02:20.165Z,97730.66
2023-04-13T04:04:46.795Z,97742.94
2023-04-13T04:07:13.344Z,97747.38
2023-04-13T04:09:39.805Z,97758.06
2023-04-13T04:12:06.584Z,97757.00
2023-04-13T04:14:34.260Z,97764.53
2023-04-13T04:17:01.264Z,97762.41
2023-04-13T04:19:27.985Z,97763.06
2023-04-13T04:21:57.659Z,97750.41
2023-04-13T04:24:24.213Z,97752.59
2023-04-13T04:26:50.822Z,97762.69
2023-04-13T04:29:17.830Z,97764.56
2023-04-13T04:31:44.474Z,97771.56
2023-04-13T04:34:11.532Z,97778.00
2023-04-13T04:36:41.477Z,97753.94
2023-04-13T04:39:09.965Z,97770.53
2023-04-13T04:41:37.512Z,97771.34
2023-04-13T04:44:08.211Z,97771.06
2023-04-13T04:46:38.582Z,97775.19
2023-04-13T04:49:05.190Z,97782.38
2023-04-13T04:51:32.152Z,97790.75
2023-04-13T04:54:01.509Z,97802.97
2023-04-13T04:56:28.877Z,97806.59
2023-04-13T04:58:55.387Z,97818.38
2023-04-13T05:01:26.206Z,97822.03
2023-04-13T05:03:53.608Z,97808.44
2023-04-13T05:06:20.134Z,97826.59
2023-04-13T05:08:46.869Z,97823.09
2023-04-13T05:11:13.432Z,97808.13
2023-04-13T05:13:39.944Z,97841.53
2023-04-13T05:16:06.963Z,97836.91
2023-04-13T05:18:43.733Z,97826.34
2023-04-13T05:21:10.291Z,97825.53
2023-04-13T05:23:36.817Z,97831.88
2023-04-13T05:26:03.401Z,97814.81
2023-04-13T05:28:29.912Z,97808.41
2023-04-13T05:31:11.127Z,97814.69
2023-04-13T05:33:37.931Z,97819.13
2023-04-13T05:36:05.015Z,97819.03
2023-04-13T05:38:31.857Z,97814.88
2023-04-13T05:40:58.678Z,97821.28
2023-04-13T05:43:25.232Z,97826.13
2023-04-13T05:45:52.035Z,97825.97
2023-04-13T05:48:19.287Z,97829.88
2023-04-13T05:50:45.804Z,97813.63
2023-04-13T05:53:12.654Z,97827.97
2023-04-13T05:55:40.597Z,97822.28
2023-04-13T05:58:08.688Z,97832.25
2023-04-13T06:00:35.245Z,97835.59
2023-04-13T06:03:02.371Z,97825.16
2023-04-13T06:05:30.261Z,97835.03
2023-04-13T06:07:56.854Z,97832.97
2023-04-13T06:10:23.432Z,97836.97
2023-04-13T06:12:51.131Z,97828.81
2023-04-13T06:15:18.439Z,97836.88
2023-04-13T06:17:45.121Z,97844.16
2023-04-13T06:20:12.033Z,97832.03
2023-04-13T06:22:38.677Z,97837.75
2023-04-13T06:25:05.708Z,97814.59
2023-04-13T06:27:33.752Z,97839.81
2023-04-13T06:30:01.140Z,97825.31
2023-04-13T06:32:27.712Z,97841.44
2023-04-13T06:34:54.265Z,97851.22
2023-04-13T06:37:20.917Z,97851.34
2023-04-13T06:39:47.477Z,97845.47
2023-04-13T06:42:15.293Z,97846.03
2023-04-13T06:44:42.788Z,97846.38
2023-04-13T06:47:09.361Z,97847.53
2023-04-13T06:49:36.598Z,97845.16
2023-04-13T06:52:03.219Z,97852.34
2023-04-13T06:54:29.728Z,97850.66
2023-04-13T06:56:57.146Z,97853.00
2023-04-13T06:59:23.716Z,97854.53
2023-04-13T07:01:50.714Z,97833.25
2023-04-13T07:04:17.472Z,97853.56
2023-04-13T07:06:44.120Z,97850.78
2023-04-13T07:09:10.669Z,97853.84
2023-04-13T07:11:37.153Z,97860.47
2023-04-13T07:14:03.948Z,97851.94
2023-04-13T07:16:30.589Z,97856.50
2023-04-13T07:18:57.229Z,97839.59
2023-04-13T07:21:23.896Z,97839.16
2023-04-13T07:23:50.619Z,97847.78
2023-04-13T07:26:18.243Z,97846.63
2023-04-13T07:28:44.798Z,97850.81
2023-04-13T07:31:11.773Z,97844.31
2023-04-13T07:33:38.354Z,97848.69
2023-04-13T07:36:05.350Z,97843.25
2023-04-13T07:38:31.859Z,97840.75
2023-04-13T07:40:58.339Z,97839.00
2023-04-13T07:43:26.361Z,97832.75
2023-04-13T07:45:52.830Z,97834.22
2023-04-13T07:48:19.346Z,97815.75
2023-04-13T07:50:46.779Z,97848.44
2023-04-13T07:53:13.407Z,97831.38
2023-04-13T07:55:39.840Z,97834.75
2023-04-13T07:58:06.290Z,97830.78
2023-04-13T08:00:32.721Z,97837.13
2023-04-13T08:02:59.251Z,97832.84
2023-04-13T08:05:26.032Z,97832.34
2023-04-13T08:07:52.969Z,97818.72
2023-04-13T08:10:19.659Z,97841.97
2023-04-13T08:12:46.607Z,97828.81
2023-04-13T08:15:13.294Z,97840.69
2023-04-13T08:17:39.820Z,97844.47
2023-04-13T08:20:08.148Z,97847.25
2023-04-13T08:22:34.940Z,97852.06
2023-04-13T08:25:01.629Z,97855.81
2023-04-13T08:27:28.280Z,97864.66
2023-04-13T08:29:56.327Z,97847.47
2023-04-13T08:32:22.915Z,97864.16
2023-04-13T08:34:49.495Z,97858.09
2023-04-13T08:37:16.274Z,97862.19
2023-04-13T08:39:43.061Z,97860.44
2023-04-13T08:42:09.857Z,97859.41
2023-04-13T08:44:40.197Z,97872.78
2023-04-13T08:47:06.875Z,97874.06
2023-04-13T08:49:34.362Z,97872.53
2023-04-13T08:52:04.804Z,97869.69
2023-04-13T08:54:31.639Z,97872.75
2023-04-13T08:56:58.197Z,97868.94
2023-04-13T08:59:27.241Z,97870.47
2023-04-13T09:01:55.191Z,97880.31
2023-04-13T09:04:24.010Z,97883.59
2023-04-13T09:06:51.710Z,97884.59
2023-04-13T09:09:18.955Z,97883.56
2023-04-13T09:11:46.181Z,97892.66
2023-04-13T09:14:13.989Z,97874.94
2023-04-13T09:16:42.196Z,97885.50
2023-04-13T09:19:09.510Z,97904.22
2023-04-13T09:21:41.360Z,97912.13
2023-04-13T09:24:08.409Z,97908.16
2023-04-13T09:26:43.119Z,97899.09
2023-04-13T09:29:21.847Z,97904.16
2023-04-13T09:31:48.401Z,97910.00
2023-04-13T09:34:26.801Z,97916.28
2023-04-13T09:36:55.816Z,97909.19
2023-04-13T09:39:26.133Z,97911.34
2023-04-13T09:41:53.510Z,97906.47
2023-04-13T09:44:22.437Z,97914.25
2023-04-13T09:46:59.705Z,97914.97
2023-04-13T09:49:27.066Z,97936.47
2023-04-13T09:51:54.628Z,97910.97
2023-04-13T09:54:24.113Z,97925.69
2023-04-13T09:56:52.869Z,97923.41
2023-04-13T09:59:19.671Z,97926.88
2023-04-13T10:01:46.797Z,97928.38
2023-04-13T10:04:13.664Z,97930.38
2023-04-13T10:06:42.002Z,97938.72
2023-04-13T10:09:09.450Z,97932.66
2023-04-13T10:11:43.204Z,97923.03
2023-04-13T10:14:18.416Z,97909.66
2023-04-13T10:17:22.708Z,97932.31
2023-04-13T10:19:51.577Z,97925.06
2023-04-13T10:22:20.613Z,97933.63
2023-04-13T10:24:47.215Z,97938.09
2023-04-13T10:27:16.707Z,97950.50
2023-04-13T10:29:43.349Z,97943.16
2023-04-13T10:32:23.039Z,97934.09
2023-04-13T10:34:50.321Z,97940.38
2023-04-13T10:37:24.718Z,97935.19
2023-04-13T10:40:08.952Z,97950.38
2023-04-13T10:42:52.847Z,97952.75
2023-04-13T10:45:26.171Z,97942.69
2023-04-13T10:47:54.062Z,97959.25
2023-04-13T10:50:22.658Z,97961.34
2023-04-13T10:52:56.249Z,97955.72
2023-04-13T10:55:27.417Z,97958.22
2023-04-13T10:57:59.327Z,97926.31
2023-04-13T11:00:42.296Z,97950.22
2023-04-13T11:03:15.260Z,97958.22
2023-04-13T11:05:42.572Z,97955.47
2023-04-13T11:08:09.609Z,97947.28
2023-04-13T11:10:36.247Z,97948.25
2023-04-13T11:13:02.909Z,97946.63
2023-04-13T11:15:30.516Z,97956.34
2023-04-13T11:17:58.602Z,97936.44
2023-04-13T11:20:38.697Z,97964.63
2023-04-13T11:23:06.642Z,97950.56
2023-04-13T11:25:36.235Z,97953.97
2023-04-13T11:28:04.200Z,97952.25
2023-04-13T11:30:32.469Z,97933.44
2023-04-13T11:33:01.013Z,97951.66
2023-04-13T11:35:27.640Z,97958.88
2023-04-13T11:37:56.087Z,97960.53
2023-04-13T11:40:25.713Z,97956.88
2023-04-13T11:42:56.751Z,97958.19
2023-04-13T11:45:26.808Z,97942.56
2023-04-13T11:47:55.077Z,97962.78
2023-04-13T11:50:22.391Z,97960.97
2023-04-13T11:52:56.509Z,97962.84
2023-04-13T11:55:24.353Z,97964.34
2023-04-13T11:57:54.563Z,97963.66
2023-04-13T12:00:25.998Z,97951.66
2023-04-13T12:03:01.902Z,97964.41
2023-04-13T12:05:32.425Z,97969.53
2023-04-13T12:08:00.686Z,97958.88
2023-04-13T12:10:39.164Z,97970.75
2023-04-13T12:16:02.258Z,97977.91
2023-04-13T12:18:37.433Z,97970.03
2023-04-13T12:21:05.693Z,97977.91
2023-04-13T12:23:32.630Z,97984.72
2023-04-13T12:25:59.968Z,97985.88
2023-04-13T12:28:32.200Z,97988.88
2023-04-13T12:31:12.169Z,97991.66
2023-04-13T12:33:39.720Z,97977.25
2023-04-13T12:36:06.959Z,97996.19
2023-04-13T12:38:34.536Z,97987.84
2023-04-13T12:41:01.919Z,97985.16
2023-04-13T12:43:28.612Z,97983.97
2023-04-13T12:45:55.665Z,97981.81
2023-04-13T12:48:22.648Z,97989.53
2023-04-13T12:50:49.325Z,97998.66
2023-04-13T12:53:16.008Z,97998.44
2023-04-13T12:55:42.543Z,97993.22
2023-04-13T12:58:09.927Z,97994.19
2023-04-13T13:00:36.378Z,97983.56
2023-04-13T13:03:13.494Z,97994.81
2023-04-13T13:05:41.897Z,97975.84
2023-04-13T13:08:09.182Z,97990.16
2023-04-13T13:10:37.221Z,97990.06
2023-04-13T13:13:04.478Z,97983.81
2023-04-13T13:15:31.770Z,97994.41
2023-04-13T13:18:00.899Z,97989.84
2023-04-13T13:20:27.551Z,97997.75
2023-04-13T13:22:54.139Z,97992.19
2023-04-13T13:25:26.518Z,98007.53
2023-04-13T13:30:37.762Z,97996.00
2023-04-13T13:33:07.311Z,98016.16
2023-04-13T13:35:35.272Z,98007.97
2023-04-13T13:38:03.252Z,98010.88
2023-04-13T13:40:37.762Z,98005.03
2023-04-13T13:43:17.448Z,98011.47
2023-04-13T13:45:58.334Z,97999.56
2023-04-13T13:48:27.490Z,98002.84
2023-04-13T13:50:56.319Z,97993.41
2023-04-13T13:53:22.992Z,97995.56
2023-04-13T13:55:52.372Z,98004.41
2023-04-13T13:58:18.937Z,98008.00
2023-04-13T14:00:45.971Z,98014.78
2023-04-13T14:03:14.073Z,98014.25
2023-04-13T14:05:41.001Z,98015.72
2023-04-13T14:08:07.496Z,98021.78
2023-04-13T14:10:35.917Z,98015.25
2023-04-13T14:13:02.428Z,98023.97
2023-04-13T14:15:29.082Z,98014.97
2023-04-13T14:18:06.484Z,98019.03
2023-04-13T14:20:38.437Z,98009.38
2023-04-13T14:23:06.114Z,98011.94
2023-04-13T14:25:32.504Z,98011.94
2023-04-13T14:27:59.040Z,98011.34
2023-04-13T14:30:27.969Z,98005.44
2023-04-13T14:32:55.002Z,98002.84
2023-04-13T14:35:21.873Z,98003.59
2023-04-13T14:37:48.473Z,98007.41
2023-04-13T14:40:17.119Z,98005.03
2023-04-13T14:42:43.945Z,98011.16
2023-04-13T14:45:12.311Z,97988.41
2023-04-13T14:47:40.025Z,98017.56
2023-04-13T14:50:08.356Z,98018.69
2023-04-13T14:52:34.992Z,98019.00
2023-04-13T14:55:01.807Z,98014.34
2023-04-13T14:57:28.928Z,98032.38
2023-04-13T14:59:56.881Z,98030.56
2023-04-13T15:02:23.571Z,98021.13
2023-04-13T15:04:50.395Z,98042.47
2023-04-13T15:07:18.873Z,98041.59
2023-04-13T15:09:45.611Z,98052.97
2023-04-13T15:12:13.719Z,98050.88
2023-04-13T15:14:41.062Z,98052.78
2023-04-13T15:17:08.663Z,98065.06
2023-04-13T15:19:35.402Z,98071.06
2023-04-13T15:22:02.090Z,98078.81
2023-04-13T15:24:28.963Z,98093.84
2023-04-13T15:26:55.896Z,98097.28
2023-04-13T15:29:23.277Z,98097.16
2023-04-13T15:31:51.766Z,98105.31
2023-04-13T15:34:18.437Z,98095.84
2023-04-13T15:36:44.889Z,98092.38
2023-04-13T15:39:11.355Z,98091.16
2023-04-13T15:41:37.898Z,98098.03
2023-04-13T15:44:04.732Z,98092.75
2023-04-13T15:46:36.227Z,98083.41
2023-04-13T15:49:15.490Z,98094.03
2023-04-13T15:51:42.585Z,98097.06
2023-04-13T15:54:09.208Z,98089.25
2023-04-13T15:56:35.713Z,98105.22
2023-04-13T15:59:02.540Z,98054.88
2023-04-13T16:01:43.895Z,98111.06
2023-04-13T16:04:11.508Z,98109.78
2023-04-13T16:06:38.326Z,98106.22
2023-04-13T16:09:04.811Z,98113.06
2023-04-13T16:11:32.306Z,98117.38
2023-04-13T16:14:07.201Z,98105.47
2023-04-13T16:16:44.074Z,98115.38
2023-04-13T16:19:12.116Z,98109.03
2023-04-13T16:21:40.204Z,98108.28
2023-04-13T16:24:08.086Z,98110.06
2023-04-13T16:26:34.980Z,98102.47
2023-04-13T16:29:01.795Z,98117.66
2023-04-13T16:31:28.730Z,98124.00
2023-04-13T16:33:55.651Z,98105.53
2023-04-13T16:36:23.706Z,98125.28
2023-04-13T16:38:51.011Z,98126.28
2023-04-13T16:41:17.547Z,98127.81
2023-04-13T16:43:44.160Z,98140.72
2023-04-13T16:46:13.784Z,98134.38
2023-04-13T16:48:40.453Z,98145.53
2023-04-13T16:51:11.188Z,98141.22
2023-04-13T16:53:50.198Z,98138.69
2023-04-13T16:56:26.959Z,98139.47
2023-04-13T16:59:03.299Z,98135.38
2023-04-13T17:01:44.732Z,98118.94
2023-04-13T17:04:26.063Z,98127.31
2023-04-13T17:07:08.423Z,98130.09
2023-04-13T17:09:39.304Z,98140.72
2023-04-13T17:12:13.022Z,98141.72
2023-04-13T17:14:40.245Z,98141.22
2023-04-13T17:17:06.691Z,98143.50
2023-04-13T17:19:33.162Z,98149.56
2023-04-13T17:21:59.698Z,98159.66
2023-04-13T17:24:26.180Z,98155.34
2023-04-13T17:26:52.722Z,98158.59
2023-04-13T17:29:21.822Z,98159.34
2023-04-13T17:31:48.839Z,98169.22
2023-04-13T17:34:15.430Z,98167.44
2023-04-13T17:36:42.065Z,98178.78
2023-04-13T17:39:08.991Z,98178.78
2023-04-13T17:41:36.581Z,98171.19
2023-04-13T17:44:03.369Z,98187.09
2023-04-13T17:46:30.534Z,98195.72
2023-04-13T17:48:57.356Z,98193.16
2023-04-13T17:51:24.254Z,98170.31
2023-04-13T17:53:51.311Z,98196.41
2023-04-13T17:56:18.526Z,98200.94
2023-04-13T17:58:45.434Z,98201.63
2023-04-13T18:01:22.468Z,98215.81
2023-04-13T18:04:01.932Z,98228.16
2023-04-13T18:06:39.186Z,98229.59
2023-04-13T18:09:21.713Z,98239.13
2023-04-13T18:12:00.024Z,98223.56
2023-04-13T18:14:37.752Z,98245.59
2023-04-13T18:17:12.983Z,98250.84
2023-04-13T18:19:52.455Z,98267.25
2023-04-13T18:22:32.365Z,98269.69
2023-04-13T18:25:08.956Z,98271.38
2023-04-13T18:27:48.594Z,98278.69
2023-04-13T18:30:28.277Z,98277.66
2023-04-13T18:33:04.623Z,98272.31
2023-04-13T18:35:43.296Z,98281.16
2023-04-13T18:38:17.812Z,98283.91
2023-04-13T18:40:57.530Z,98277.78
2023-04-13T18:43:32.475Z,98284.63
2023-04-13T18:46:07.919Z,98276.50
2023-04-13T18:48:48.500Z,98290.88
2023-04-13T18:51:16.425Z,98290.59
2023-04-13T18:53:42.954Z,98295.94
2023-04-13T18:56:09.463Z,98278.97
2023-04-13T18:58:36.212Z,98283.25
2023-04-13T19:01:02.779Z,98297.44
2023-04-13T19:03:29.457Z,98290.59
2023-04-13T19:05:56.779Z,98306.75
2023-04-13T19:08:23.237Z,98305.69
2023-04-13T19:10:49.719Z,98304.94
2023-04-13T19:13:16.920Z,98302.88
2023-04-13T19:15:43.465Z,98312.44
2023-04-13T19:18:11.380Z,98292.13
2023-04-13T19:20:38.156Z,98309.88
2023-04-13T19:23:04.629Z,98299.63
2023-04-13T19:25:31.141Z,98323.97
2023-04-13T19:27:59.022Z,98315.50
2023-04-13T19:30:25.554Z,98315.88
2023-04-13T19:32:53.819Z,98314.00
2023-04-13T19:35:22.420Z,98326.41
2023-04-13T19:37:48.856Z,98315.50
2023-04-13T19:40:15.412Z,98313.63
2023-04-13T19:42:43.362Z,98321.75
2023-04-13T19:45:10.671Z,98315.94
2023-04-13T19:47:38.525Z,98310.63
2023-04-13T19:50:07.181Z,98310.88
2023-04-13T19:52:33.934Z,98312.91
2023-04-13T19:55:00.473Z,98307.34
2023-04-13T19:57:27.024Z,98310.03
2023-04-13T19:59:53.637Z,98303.94
2023-04-13T20:02:20.422Z,98310.81
2023-04-13T20:04:49.981Z,98310.03
2023-04-13T20:07:17.641Z,98315.50
2023-04-13T20:09:44.654Z,98311.75
2023-04-13T20:12:11.994Z,98325.38
2023-04-13T20:14:41.584Z,98320.31
2023-04-13T20:17:08.499Z,98316.50
2023-04-13T20:19:36.348Z,98325.78
2023-04-13T20:22:04.275Z,98328.00
2023-04-13T20:24:31.448Z,98321.91
2023-04-13T20:26:58.706Z,98330.72
2023-04-13T20:29:26.992Z,98324.59
2023-04-13T20:31:54.337Z,98332.16
2023-04-13T20:34:21.185Z,98334.66
2023-04-13T20:36:47.728Z,98327.97
2023-04-13T20:39:14.478Z,98329.53
2023-04-13T20:41:41.139Z,98328.19
2023-04-13T20:44:09.909Z,98329.16
2023-04-13T20:46:37.585Z,98321.50
2023-04-13T20:49:05.039Z,98299.38
2023-04-13T20:51:33.365Z,98318.69
2023-04-13T20:54:03.125Z,98316.84
2023-04-13T20:56:29.830Z,98318.88
2023-04-13T20:58:57.747Z,98321.56
2023-04-13T21:01:28.126Z,98313.94
2023-04-13T21:03:54.616Z,98311.84
2023-04-13T21:06:22.738Z,98322.63
2023-04-13T21:08:49.390Z,98303.03
2023-04-13T21:11:16.165Z,98313.84
2023-04-13T21:13:42.748Z,98322.16
2023-04-13T21:16:12.039Z,98311.66
2023-04-13T21:18:38.939Z,98318.34
2023-04-13T21:21:06.623Z,98335.53
2023-04-13T21:23:33.369Z,98322.84
2023-04-13T21:25:59.774Z,98325.31
2023-04-13T21:28:26.237Z,98327.31
2023-04-13T21:30:52.767Z,98328.00
2023-04-13T21:33:19.357Z,98325.91
2023-04-13T21:35:45.954Z,98324.09
2023-04-13T21:38:12.642Z,98325.41
2023-04-13T21:40:39.067Z,98326.84
2023-04-13T21:43:05.533Z,98324.75
2023-04-13T21:45:32.505Z,98327.16
2023-04-13T21:47:59.095Z,98325.59
2023-04-13T21:50:25.655Z,98325.97
2023-04-13T21:52:52.367Z,98325.69
2023-04-13T21:55:18.989Z,98321.88
2023-04-13T21:57:49.424Z,98326.38
2023-04-13T22:00:18.551Z,98308.66
2023-04-13T22:02:45.134Z,98321.19
2023-04-13T22:05:12.004Z,98317.53
2023-04-13T22:07:42.852Z,98296.75
2023-04-13T22:10:11.026Z,98289.75
2023-04-13T22:12:37.773Z,98301.97
2023-04-13T22:15:04.774Z,98289.84
2023-04-13T22:17:31.312Z,98291.75
2023-04-13T22:19:58.129Z,98262.53
2023-04-13T22:22:24.647Z,98281.06
2023-04-13T22:24:52.416Z,98260.88
2023-04-13T22:27:18.950Z,98259.25
2023-04-13T22:29:45.685Z,98286.84
2023-04-13T22:32:12.192Z,98286.25
2023-04-13T22:34:38.602Z,98282.88
2023-04-13T22:37:07.049Z,98292.78
2023-04-13T22:39:33.639Z,98300.97
2023-04-13T22:42:00.170Z,98296.09
2023-04-13T22:44:32.672Z,98308.84
2023-04-13T22:46:59.327Z,98300.88
2023-04-13T22:49:26.234Z,98296.00
2023-04-13T22:51:52.763Z,98310.75
2023-04-13T22:54:19.287Z,98316.44
2023-04-13T22:56:46.943Z,98309.56
2023-04-13T22:59:13.369Z,98319.84
2023-04-13T23:01:39.892Z,98329.84
2023-04-13T23:04:06.985Z,98339.34
2023-04-13T23:06:36.598Z,98342.94
2023-04-13T23:09:03.069Z,98341.69
2023-04-13T23:11:29.651Z,98338.69
2023-04-13T23:13:56.084Z,98350.78
2023-04-13T23:16:22.803Z,98329.47
2023-04-13T23:18:49.443Z,98335.94
2023-04-13T23:21:16.063Z,98336.09
2023-04-13T23:23:42.779Z,98334.06
2023-04-13T23:26:09.412Z,98350.81
2023-04-13T23:28:35.960Z,98351.25
2023-04-13T23:31:06.538Z,98343.19
2023-04-13T23:33:36.244Z,98330.59
2023-04-13T23:36:03.518Z,98342.41
2023-04-13T23:38:30.804Z,98333.50
2023-04-13T23:40:57.707Z,98331.66
2023-04-13T23:43:24.890Z,98339.81
2023-04-13T23:45:52.744Z,98318.53
2023-04-13T23:48:21.408Z,98343.78
2023-04-13T23:50:48.354Z,98345.34
2023-04-13T23:53:15.037Z,98348.84
2023-04-13T23:55:41.591Z,98331.84
2023-04-13T23:58:08.069Z,98342.88
